Time;durP1;ratioP1;P1;durP2;ratioP2;P2;SDS_P1;SDS_P2;PMS_P1;PMS_P2;Temp;Humidity;BMP_temperature;BMP_pressure;BME280_temperature;BME280_humidity;BME280_pressure;Samples;Min_cycle;Max_cycle;Signal;HPM_P1;HPM_P2
2021/09/21 00:00:14;;;;;;;;;;;;;;;6.11;88.94;100354.91;5082470;28;20363;-82
2021/09/21 00:02:39;;;;;;;;;;;;;;;6.04;88.93;100353.28;5063886;28;19927;-82
2021/09/21 00:05:05;;;;;;;;;;;;;;;6.11;89.00;100345.28;5063802;28;20428;-86
2021/09/21 00:07:30;;;;;;;;;;;;;;;6.13;88.99;100351.38;5062046;28;19955;-83
2021/09/21 00:09:55;;;;;;;;;;;;;;;6.04;88.75;100355.91;5060777;28;19920;-81
2021/09/21 00:12:20;;;;;;;;;;;;;;;6.02;88.98;100347.19;5063384;28;19913;-81
2021/09/21 00:14:46;;;;;;;;;;;;;;;6.03;89.03;100346.28;5063447;28;19966;-82
2021/09/21 00:17:11;;;;;;;;;;;;;;;6.05;89.02;100355.00;5082138;28;19969;-87
2021/09/21 00:19:36;;;;;;;;;;;;;;;6.04;88.62;100362.03;5060488;28;20401;-82
2021/09/21 00:22:02;;;;;;;;;;;;;;;6.07;88.85;100361.13;5062041;28;20374;-81
2021/09/21 00:24:28;;;;;;;;;;;;;;;6.01;88.76;100351.56;5081538;28;19912;-82
2021/09/21 00:26:53;;;;;;;;;;;;;;;6.02;89.36;100357.72;5081505;28;19963;-92
2021/09/21 00:29:18;;;;;;;;;;;;;;;6.04;89.07;100364.66;5063406;28;19963;-82
2021/09/21 00:31:49;;;;;;;;;;;;;;;6.03;89.08;100373.47;5065120;28;19923;-82
2021/09/21 00:34:15;;;;;;;;;;;;;;;5.99;88.96;100377.88;5066976;28;19945;-82
2021/09/21 00:36:41;;;;;;;;;;;;;;;5.94;88.82;100382.31;5065739;28;20446;-82
2021/09/21 00:39:08;;;;;;;;;;;;;;;5.93;89.01;100385.81;5083095;28;20007;-82
2021/09/21 00:41:37;;;;;;;;;;;;;;;5.97;89.03;100387.56;5082694;28;19923;-82
2021/09/21 00:44:03;;;;;;;;;;;;;;;5.92;89.16;100393.75;5077161;28;20416;-90
2021/09/21 00:46:29;;;;;;;;;;;;;;;5.91;88.98;100381.50;5066540;28;19920;-87
2021/09/21 00:48:54;;;;;;;;;;;;;;;5.88;89.03;100395.56;5067354;28;20370;-82
2021/09/21 00:51:21;;;;;;;;;;;;;;;5.90;89.15;100390.28;5084708;28;19916;-82
2021/09/21 00:53:46;;;;;;;;;;;;;;;5.86;89.23;100386.81;5083679;28;20406;-82
2021/09/21 00:56:12;;;;;;;;;;;;;;;5.90;89.04;100388.50;5079601;28;19916;-83
2021/09/21 00:58:37;;;;;;;;;;;;;;;5.87;89.12;100396.47;5067299;28;19917;-82
2021/09/21 01:01:02;;;;;;;;;;;;;;;5.85;88.97;100392.97;5066747;28;19916;-82
2021/09/21 01:03:27;;;;;;;;;;;;;;;5.90;88.76;100391.13;5066629;28;20003;-82
2021/09/21 01:05:53;;;;;;;;;;;;;;;5.88;88.55;100390.28;5063583;28;19917;-82
2021/09/21 01:08:18;;;;;;;;;;;;;;;5.82;88.74;100388.63;5065049;28;19926;-82
2021/09/21 01:10:43;;;;;;;;;;;;;;;5.82;88.79;100393.00;5067185;28;19959;-81
2021/09/21 01:13:08;;;;;;;;;;;;;;;5.75;88.72;100389.59;5061748;28;20486;-92
2021/09/21 04:49:08;;;;;;;;;;;;;;;5.12;87.32;100500.69;5516814;22;19932;-80
2021/09/21 04:51:33;;;;;;;;;;;;;;;5.18;87.53;100507.66;5092302;28;19924;-81
2021/09/21 04:53:58;;;;;;;;;;;;;;;5.13;87.66;100505.06;5094717;28;20325;-82
2021/09/21 04:56:23;;;;;;;;;;;;;;;5.16;87.81;100501.53;5077449;28;20298;-83
2021/09/21 04:58:49;;;;;;;;;;;;;;;5.17;87.58;100508.53;5076545;28;19917;-83
2021/09/21 05:01:14;;;;;;;;;;;;;;;5.17;87.56;100519.94;5076634;28;19962;-91
2021/09/21 05:03:40;;;;;;;;;;;;;;;5.07;87.86;100511.25;5086214;28;20006;-89
2021/09/21 05:06:05;;;;;;;;;;;;;;;5.09;88.06;100513.88;5076273;28;19927;-85
2021/09/21 05:08:30;;;;;;;;;;;;;;;5.19;88.43;100518.16;5077113;28;19972;-91
2021/09/21 05:10:55;;;;;;;;;;;;;;;5.19;87.82;100522.53;5076737;28;19916;-93
2021/09/21 05:13:21;;;;;;;;;;;;;;;5.15;87.78;100520.81;5094832;28;19916;-87
2021/09/21 05:15:46;;;;;;;;;;;;;;;5.08;88.14;100525.25;5094481;28;19916;-82
2021/09/21 05:18:11;;;;;;;;;;;;;;;5.15;88.05;100526.94;5092543;28;19916;-93
2021/09/21 05:20:37;;;;;;;;;;;;;;;5.13;87.89;100533.97;5094753;28;19916;-91
2021/09/21 05:23:02;;;;;;;;;;;;;;;5.05;87.92;100527.91;5075463;28;19942;-89
2021/09/21 05:25:27;;;;;;;;;;;;;;;5.07;87.99;100540.16;5076644;28;19916;-93
2021/09/21 05:27:52;;;;;;;;;;;;;;;5.16;87.97;100530.44;5076607;28;19920;-86
2021/09/21 05:30:19;;;;;;;;;;;;;;;5.15;87.69;100532.19;5094555;28;19923;-82
2021/09/21 05:32:45;;;;;;;;;;;;;;;5.10;87.81;100544.50;5074397;28;20157;-89
2021/09/21 05:35:10;;;;;;;;;;;;;;;5.17;87.91;100540.94;5094230;28;19920;-82
2021/09/21 05:37:36;;;;;;;;;;;;;;;5.13;87.51;100544.47;5075334;28;19927;-93
2021/09/21 05:40:01;;;;;;;;;;;;;;;5.08;87.66;100552.38;5091593;28;20388;-82
2021/09/21 05:42:26;;;;;;;;;;;;;;;5.13;87.72;100560.22;5094124;28;20022;-81
2021/09/21 05:44:52;;;;;;;;;;;;;;;5.08;88.05;100562.03;5075669;28;19973;-82
2021/09/21 05:47:17;;;;;;;;;;;;;;;5.02;87.63;100567.34;5075955;28;19927;-82
2021/09/21 05:49:42;;;;;;;;;;;;;;;5.07;88.20;100581.28;5085821;28;20065;-82
2021/09/21 05:52:08;;;;;;;;;;;;;;;5.12;87.86;100590.00;5093882;28;19927;-81
2021/09/21 05:54:33;;;;;;;;;;;;;;;5.09;87.29;100585.66;5093811;28;20359;-81
2021/09/21 05:56:59;;;;;;;;;;;;;;;5.09;87.41;100598.81;5093628;28;19927;-81
2021/09/21 05:59:24;;;;;;;;;;;;;;;5.01;87.90;100604.97;5075409;28;19920;-88
2021/09/21 06:01:49;;;;;;;;;;;;;;;5.04;88.03;100611.09;5093728;28;20447;-84
2021/09/21 06:04:15;;;;;;;;;;;;;;;5.08;88.00;100614.56;5074310;28;20371;-85
2021/09/21 06:06:40;;;;;;;;;;;;;;;4.99;88.12;100614.63;5093662;28;19939;-89
2021/09/21 06:09:06;;;;;;;;;;;;;;;5.00;87.96;100624.28;5093465;28;19999;-92
2021/09/21 06:11:34;;;;;;;;;;;;;;;5.02;87.81;100633.00;5070934;28;20278;-82
2021/09/21 06:14:01;;;;;;;;;;;;;;;5.01;87.79;100640.03;5070414;28;19920;-83
2021/09/21 06:16:26;;;;;;;;;;;;;;;5.02;87.77;100640.88;5093316;28;19969;-85
2021/09/21 06:18:51;;;;;;;;;;;;;;;4.99;88.07;100639.13;5092083;28;19916;-82
2021/09/21 06:21:16;;;;;;;;;;;;;;;5.05;87.85;100632.97;5093367;28;20015;-91
2021/09/21 06:23:42;;;;;;;;;;;;;;;5.00;87.92;100643.50;5093294;28;20289;-81
2021/09/21 06:26:07;;;;;;;;;;;;;;;5.02;88.12;100640.88;5070452;28;19920;-82
2021/09/21 06:28:32;;;;;;;;;;;;;;;5.04;87.90;100644.34;5086677;28;19926;-82
2021/09/21 06:30:58;;;;;;;;;;;;;;;5.01;88.03;100654.88;5074787;28;19965;-82
2021/09/21 06:33:24;;;;;;;;;;;;;;;5.06;87.86;100650.50;5091787;28;19920;-82
2021/09/21 06:35:50;;;;;;;;;;;;;;;5.00;87.77;100648.78;5071012;28;19986;-84
2021/09/21 06:38:15;;;;;;;;;;;;;;;4.96;87.73;100648.78;5093165;28;19967;-87
2021/09/21 06:40:40;;;;;;;;;;;;;;;4.98;87.92;100649.66;5091846;28;20351;-85
2021/09/21 06:43:05;;;;;;;;;;;;;;;4.88;87.85;100654.97;5092830;28;19920;-83
2021/09/21 06:45:31;;;;;;;;;;;;;;;4.97;87.82;100651.41;5092956;28;20010;-88
2021/09/21 06:47:56;;;;;;;;;;;;;;;4.87;88.01;100649.72;5070050;28;19923;-82
2021/09/21 06:50:21;;;;;;;;;;;;;;;4.91;88.24;100646.19;5064625;28;20501;-82
2021/09/21 06:52:47;;;;;;;;;;;;;;;4.86;88.03;100656.72;5068997;28;19955;-85
2021/09/21 06:55:12;;;;;;;;;;;;;;;4.91;88.19;100665.47;5071116;28;19923;-82
2021/09/21 06:57:38;;;;;;;;;;;;;;;4.89;88.01;100667.22;5071042;28;19923;-82
2021/09/21 07:00:04;;;;;;;;;;;;;;;4.92;87.95;100674.22;5070863;28;19920;-82
2021/09/21 07:02:29;;;;;;;;;;;;;;;4.87;88.17;100682.13;5070112;28;19916;-83
2021/09/21 07:04:54;;;;;;;;;;;;;;;4.91;88.00;100675.97;5072284;28;20495;-82
2021/09/21 07:07:20;;;;;;;;;;;;;;;4.89;88.14;100677.72;5071182;28;20340;-83
2021/09/21 07:09:45;;;;;;;;;;;;;;;4.87;88.07;100676.00;5072475;28;19916;-82
2021/09/21 07:12:11;;;;;;;;;;;;;;;4.93;87.81;100689.09;5071119;28;19921;-82
2021/09/21 07:14:36;;;;;;;;;;;;;;;4.86;88.43;100687.38;5070790;28;20294;-82
2021/09/21 07:59:05;;;;;;;;;;;;;;;4.81;88.48;100713.66;5481991;22;19952;-85
2021/09/21 08:01:31;;;;;;;;;;;;;;;4.78;88.60;100711.03;5050897;28;19921;-82
2021/09/21 08:03:57;;;;;;;;;;;;;;;4.79;89.92;100710.16;5067740;28;19970;-82
2021/09/21 08:06:23;;;;;;;;;;;;;;;4.82;90.89;100712.78;5048239;28;20371;-84
2021/09/21 08:08:48;;;;;;;;;;;;;;;4.78;91.08;100718.06;5043515;28;19962;-84
2021/09/21 08:11:13;;;;;;;;;;;;;;;4.80;91.14;100711.03;5063681;28;19928;-84
2021/09/21 08:13:39;;;;;;;;;;;;;;;4.85;91.20;100723.28;5046586;28;19959;-85
2021/09/21 08:16:05;;;;;;;;;;;;;;;4.82;91.14;100723.28;5046682;28;19921;-84
2021/09/21 08:18:30;;;;;;;;;;;;;;;4.88;90.79;100719.75;5050208;28;19921;-85
2021/09/21 08:20:55;;;;;;;;;;;;;;;4.78;90.50;100720.69;5047854;28;19916;-88
2021/09/21 08:23:20;;;;;;;;;;;;;;;7.31;92.86;100707.78;5047104;28;19923;-85
2021/09/21 08:25:46;;;;;;;;;;;;;;;12.74;69.39;100697.38;5045764;28;19947;-83
2021/09/21 08:28:11;;;;;;;;;;;;;;;10.06;88.33;100708.44;5045187;28;19920;-87
2021/09/21 08:30:36;;;;;;;;;;;;;;;8.41;90.42;100706.81;5047902;28;19917;-84
2021/09/21 08:33:02;;;;;;;;;;;;;;;7.72;90.43;100712.44;5065743;28;20378;-90
2021/09/21 08:35:27;;;;;;;;;;;;;;;7.27;87.27;100710.50;5045473;28;19923;-87
2021/09/21 08:37:52;;;;;;;;;;;;;;;6.97;87.10;100717.03;5047442;28;20368;-89
2021/09/21 08:40:18;;;;;;;;;;;;;;;6.90;86.53;100720.66;5046399;28;19917;-86
2021/09/21 08:42:43;;;;;;;;;;;;;;;6.76;86.46;100730.50;5064581;28;19978;-87
2021/09/21 08:45:09;;;;;;;;;;;;;;;6.95;86.91;100732.00;5047039;28;19982;-82
2021/09/21 08:47:34;;;;;;;;;;;;;;;6.81;84.46;100737.47;5047153;28;20260;-82
2021/09/21 08:50:01;;;;;;;;;;;;;;;6.73;84.40;100748.09;5048400;28;19921;-90
2021/09/21 08:52:26;;;;;;;;;;;;;;;6.56;85.79;100750.06;5048082;28;19916;-83
2021/09/21 08:54:52;;;;;;;;;;;;;;;6.46;86.36;100753.66;5065074;28;19947;-83
2021/09/21 08:57:18;;;;;;;;;;;;;;;6.53;85.57;100752.72;5047836;28;20005;-89
2021/09/21 08:59:49;;;;;;;;;;;;;;;6.52;84.42;100757.09;5042788;28;19920;-88
2021/09/21 09:02:14;;;;;;;;;;;;;;;6.54;83.96;100759.69;5044087;28;19921;-82
2021/09/21 09:04:39;;;;;;;;;;;;;;;6.59;85.39;100757.91;5037204;28;19919;-90
2021/09/21 09:07:05;;;;;;;;;;;;;;;6.60;84.22;100766.69;5044396;28;20390;-86
2021/09/21 09:09:32;;;;;;;;;;;;;;;6.60;83.76;100766.69;5043702;28;19917;-84
2021/09/21 09:12:00;;;;;;;;;;;;;;;6.52;84.23;100766.75;5044161;28;19920;-82
2021/09/21 09:14:28;;;;;;;;;;;;;;;6.44;84.79;100772.09;5042328;28;19964;-86
2021/09/21 09:17:20;;;;;;;;;;;;;;;6.50;84.28;100773.81;5045170;28;19999;-84
2021/09/21 09:19:49;;;;;;;;;;;;;;;6.62;83.45;100772.78;5041270;28;20012;-89
2021/09/21 09:22:16;;;;;;;;;;;;;;;6.60;84.04;100764.91;5043434;28;19924;-81
2021/09/21 09:24:45;;;;;;;;;;;;;;;6.73;84.23;100773.53;5037943;28;19964;-88
2021/09/21 09:27:11;;;;;;;;;;;;;;;6.54;84.39;100783.41;5042375;28;19971;-89
2021/09/21 09:29:36;;;;;;;;;;;;;;;6.83;84.49;100782.22;5042386;28;19917;-85
2021/09/21 09:32:01;;;;;;;;;;;;;;;6.71;86.64;100791.13;5042424;28;19963;-81
2021/09/21 09:34:28;;;;;;;;;;;;;;;6.76;84.85;100788.47;5043443;28;19921;-83
2021/09/21 09:36:57;;;;;;;;;;;;;;;7.01;87.84;100787.28;5042272;28;19921;-82
2021/09/21 09:39:25;;;;;;;;;;;;;;;6.93;83.61;100793.53;5043654;28;19921;-82
2021/09/21 09:41:52;;;;;;;;;;;;;;;6.65;84.34;100799.09;5037654;28;19923;-86
2021/09/21 09:44:19;;;;;;;;;;;;;;;6.77;84.29;100800.75;5041969;28;19924;-88
2021/09/21 09:46:46;;;;;;;;;;;;;;;6.85;83.66;100794.50;5043999;28;20772;-89
2021/09/21 09:49:11;;;;;;;;;;;;;;;6.70;83.32;100799.91;5035569;28;19971;-82
2021/09/21 09:51:44;;;;;;;;;;;;;;;6.52;83.92;100791.31;5043881;28;19920;-82
2021/09/21 09:54:10;;;;;;;;;;;;;;;6.78;84.17;100791.94;5042979;28;20044;-89
2021/09/21 09:56:35;;;;;;;;;;;;;;;6.63;83.46;100790.34;5046311;28;20415;-82
2021/09/21 09:59:00;;;;;;;;;;;;;;;6.93;85.65;100793.53;5041017;28;19921;-84
2021/09/21 10:01:26;;;;;;;;;;;;;;;6.87;84.06;100795.34;5037030;28;19921;-82
2021/09/21 10:03:51;;;;;;;;;;;;;;;6.66;84.75;100793.81;5042742;28;19917;-90
2021/09/21 10:06:16;;;;;;;;;;;;;;;6.71;84.82;100797.25;5043051;28;20058;-83
2021/09/21 10:08:42;;;;;;;;;;;;;;;6.70;85.68;100799.91;5042720;28;20368;-82
2021/09/21 10:11:07;;;;;;;;;;;;;;;6.88;83.87;100804.13;5043870;28;19942;-88
2021/09/21 10:13:33;;;;;;;;;;;;;;;6.83;84.82;100806.81;5040998;28;19921;-82
2021/09/21 10:15:58;;;;;;;;;;;;;;;6.88;84.64;100809.41;5058055;28;19921;-89
2021/09/21 10:18:25;;;;;;;;;;;;;;;6.70;84.93;100798.19;5040217;28;19920;-82
2021/09/21 10:20:58;;;;;;;;;;;;;;;6.83;84.94;100805.91;5043429;28;19921;-89
2021/09/21 10:23:30;;;;;;;;;;;;;;;6.91;86.54;100804.09;5040583;28;20008;-83
2021/09/21 10:25:55;;;;;;;;;;;;;;;6.87;84.25;100803.22;5046018;28;19963;-84
2021/09/21 10:28:21;;;;;;;;;;;;;;;6.97;83.82;100804.00;5041305;28;20346;-85
2021/09/21 10:30:57;;;;;;;;;;;;;;;7.04;87.08;100800.41;5043295;28;19923;-82
2021/09/21 10:33:23;;;;;;;;;;;;;;;6.88;83.45;100798.84;5043842;28;20003;-83
2021/09/21 10:35:49;;;;;;;;;;;;;;;7.07;86.08;100789.84;5040771;28;19924;-82
2021/09/21 10:38:15;;;;;;;;;;;;;;;7.04;83.65;100789.88;5039120;28;19968;-82
2021/09/21 10:40:41;;;;;;;;;;;;;;;6.90;83.61;100786.53;5043915;28;19927;-87
2021/09/21 10:43:08;;;;;;;;;;;;;;;6.96;85.38;100777.69;5038567;28;20460;-81
2021/09/21 10:45:33;;;;;;;;;;;;;;;6.98;84.46;100776.78;5042045;28;19920;-87
2021/09/21 10:48:05;;;;;;;;;;;;;;;6.96;83.63;100770.66;5041031;28;20390;-82
2021/09/21 10:50:37;;;;;;;;;;;;;;;6.76;83.45;100767.38;5042027;28;19971;-80
2021/09/21 10:53:03;;;;;;;;;;;;;;;6.66;83.61;100770.13;5040830;28;19944;-81
2021/09/21 10:55:32;;;;;;;;;;;;;;;6.67;83.53;100768.34;5043066;28;19966;-83
2021/09/21 10:58:03;;;;;;;;;;;;;;;6.78;83.53;100770.88;5039119;28;19924;-89
2021/09/21 11:00:30;;;;;;;;;;;;;;;6.94;86.62;100769.81;5059252;28;20295;-84
2021/09/21 11:02:56;;;;;;;;;;;;;;;6.69;84.00;100764.81;5043863;28;19924;-88
2021/09/21 11:05:26;;;;;;;;;;;;;;;6.75;83.65;100761.25;5046294;28;20293;-84
2021/09/21 11:07:51;;;;;;;;;;;;;;;6.81;83.83;100760.28;5061549;28;20419;-80
2021/09/21 11:10:20;;;;;;;;;;;;;;;7.02;86.06;100765.31;5043750;28;19917;-89
2021/09/21 11:12:46;;;;;;;;;;;;;;;7.19;85.67;100759.81;5060660;28;19952;-87
2021/09/21 11:15:12;;;;;;;;;;;;;;;6.94;82.82;100761.91;5042203;28;19964;-89
2021/09/21 11:17:37;;;;;;;;;;;;;;;6.93;84.88;100768.06;5062726;28;19963;-88
2021/09/21 11:20:03;;;;;;;;;;;;;;;6.88;83.56;100767.25;5063793;28;19916;-87
2021/09/21 11:22:29;;;;;;;;;;;;;;;6.91;83.96;100764.56;5046160;28;19917;-81
2021/09/21 11:24:59;;;;;;;;;;;;;;;7.00;84.64;100766.22;5037758;28;19930;-82
2021/09/21 11:27:25;;;;;;;;;;;;;;;6.70;83.38;100765.66;5060848;28;19920;-81
2021/09/21 11:29:58;;;;;;;;;;;;;;;6.73;83.36;100766.53;5041774;28;19928;-84
2021/09/21 11:32:23;;;;;;;;;;;;;;;7.04;86.38;100768.78;5060694;28;20371;-83
2021/09/21 11:34:59;;;;;;;;;;;;;;;6.87;82.87;100760.22;5043031;28;19923;-86
2021/09/21 11:37:25;;;;;;;;;;;;;;;6.66;84.23;100762.22;5061706;28;20279;-81
2021/09/21 11:39:50;;;;;;;;;;;;;;;6.91;83.96;100761.94;5041565;28;19924;-83
2021/09/21 11:42:22;;;;;;;;;;;;;;;6.90;85.57;100765.47;5063123;28;19924;-89
2021/09/21 11:44:49;;;;;;;;;;;;;;;7.03;83.34;100776.72;5058386;28;20369;-87
2021/09/21 11:47:14;;;;;;;;;;;;;;;6.69;83.52;100780.63;5060944;28;19932;-86
2021/09/21 11:49:50;;;;;;;;;;;;;;;6.62;84.02;100783.31;5057083;28;19921;-81
2021/09/21 11:52:16;;;;;;;;;;;;;;;6.63;83.75;100780.69;5042200;28;19924;-80
2021/09/21 11:54:41;;;;;;;;;;;;;;;6.61;83.29;100785.09;5043245;28;19921;-89
2021/09/21 11:57:08;;;;;;;;;;;;;;;6.71;84.32;100786.72;5042750;28;19979;-88
2021/09/21 11:59:34;;;;;;;;;;;;;;;6.63;83.08;100782.44;5059905;28;20371;-90
2021/09/21 12:01:59;;;;;;;;;;;;;;;6.88;86.05;100789.19;5041327;28;19916;-83
2021/09/21 12:04:24;;;;;;;;;;;;;;;6.59;83.47;100780.72;5060810;28;19928;-85
2021/09/21 12:06:50;;;;;;;;;;;;;;;6.65;83.52;100783.28;5060065;28;19917;-83
2021/09/21 12:09:16;;;;;;;;;;;;;;;6.63;83.71;100787.72;5060229;28;19920;-80
2021/09/21 12:11:42;;;;;;;;;;;;;;;6.70;82.70;100785.00;5062369;28;19916;-81
2021/09/21 12:14:07;;;;;;;;;;;;;;;6.70;82.73;100790.28;5039007;28;19952;-89
2021/09/21 12:16:33;;;;;;;;;;;;;;;6.53;82.82;100793.06;5044661;28;19963;-81
2021/09/21 12:18:58;;;;;;;;;;;;;;;6.65;83.45;100792.09;5043361;28;20432;-89
2021/09/21 12:21:26;;;;;;;;;;;;;;;6.72;83.82;100788.50;5061151;28;19932;-89
2021/09/21 12:23:52;;;;;;;;;;;;;;;6.82;83.64;100794.53;5061477;28;20395;-81
2021/09/21 12:26:19;;;;;;;;;;;;;;;6.73;83.33;100790.25;5042962;28;19927;-81
2021/09/21 12:28:46;;;;;;;;;;;;;;;6.65;83.71;100781.56;5039379;28;20003;-90
2021/09/21 12:31:23;;;;;;;;;;;;;;;6.70;84.11;100779.75;5049291;28;19923;-84
2021/09/21 12:33:49;;;;;;;;;;;;;;;6.75;83.27;100777.06;5064698;28;19925;-89
2021/09/21 12:36:19;;;;;;;;;;;;;;;6.80;84.20;100764.69;5064537;28;19927;-82
2021/09/21 12:38:55;;;;;;;;;;;;;;;6.99;84.40;100765.34;5065618;28;19920;-81
2021/09/21 12:41:20;;;;;;;;;;;;;;;6.72;83.24;100771.81;5063270;28;19920;-83
2021/09/21 12:43:46;;;;;;;;;;;;;;;6.67;83.45;100768.34;5065278;28;19982;-89
2021/09/21 12:46:11;;;;;;;;;;;;;;;6.64;83.05;100773.66;5064575;28;19920;-91
2021/09/21 12:48:38;;;;;;;;;;;;;;;6.88;84.27;100778.66;5063619;28;19924;-85
2021/09/21 12:51:04;;;;;;;;;;;;;;;6.77;83.06;100777.91;5058853;28;19966;-87
2021/09/21 12:53:29;;;;;;;;;;;;;;;6.99;86.73;100770.63;5065097;28;20292;-86
2021/09/21 12:55:54;;;;;;;;;;;;;;;7.03;82.75;100767.03;5047262;28;19920;-82
2021/09/21 12:58:22;;;;;;;;;;;;;;;7.02;84.92;100775.84;5044276;28;20351;-89
2021/09/21 13:00:47;;;;;;;;;;;;;;;6.88;83.34;100767.25;5065255;28;19998;-82
2021/09/21 13:03:13;;;;;;;;;;;;;;;6.73;83.22;100763.00;5047219;28;20035;-85
2021/09/21 13:05:38;;;;;;;;;;;;;;;6.76;82.88;100762.13;5067734;28;19925;-89
2021/09/21 13:08:04;;;;;;;;;;;;;;;6.77;82.89;100769.13;5065577;28;19925;-82
2021/09/21 13:10:30;;;;;;;;;;;;;;;6.70;83.07;100763.94;5046724;28;20368;-84
2021/09/21 13:12:55;;;;;;;;;;;;;;;6.72;83.21;100762.16;5044368;28;19924;-87
2021/09/21 13:15:20;;;;;;;;;;;;;;;6.73;82.86;100748.09;5047454;28;19997;-89
2021/09/21 13:17:45;;;;;;;;;;;;;;;6.67;82.98;100750.78;5045843;28;19921;-88
2021/09/21 13:20:11;;;;;;;;;;;;;;;6.64;82.96;100747.34;5059814;28;19932;-84
2021/09/21 13:22:36;;;;;;;;;;;;;;;6.76;82.89;100744.53;5046764;28;19974;-80
2021/09/21 13:25:01;;;;;;;;;;;;;;;6.57;82.92;100746.50;5061665;28;19929;-87
2021/09/21 13:27:27;;;;;;;;;;;;;;;6.77;83.83;100737.53;5064052;28;19917;-84
2021/09/21 13:29:52;;;;;;;;;;;;;;;7.13;84.71;100751.09;5064968;28;19924;-89
2021/09/21 13:32:17;;;;;;;;;;;;;;;6.69;82.80;100745.50;5046064;28;20054;-84
2021/09/21 13:34:42;;;;;;;;;;;;;;;6.83;85.10;100747.97;5043779;28;20362;-89
2021/09/21 13:37:08;;;;;;;;;;;;;;;6.94;83.05;100746.09;5040485;28;20011;-89
2021/09/21 13:39:33;;;;;;;;;;;;;;;6.95;83.48;100747.81;5045262;28;19921;-89
2021/09/21 13:41:58;;;;;;;;;;;;;;;6.71;82.87;100739.31;5062707;28;19968;-85
2021/09/21 13:44:23;;;;;;;;;;;;;;;6.66;82.39;100737.66;5044107;28;19928;-84
2021/09/21 13:46:49;;;;;;;;;;;;;;;6.60;82.33;100737.72;5063121;28;19939;-81
2021/09/21 13:49:14;;;;;;;;;;;;;;;6.59;83.45;100736.84;5060281;28;20307;-90
2021/09/21 13:51:40;;;;;;;;;;;;;;;6.69;82.82;100740.25;5055818;28;19920;-81
2021/09/21 13:54:05;;;;;;;;;;;;;;;6.53;84.59;100740.41;5060021;28;19931;-81
2021/09/21 13:56:30;;;;;;;;;;;;;;;6.66;83.12;100735.88;5042571;28;19921;-83
2021/09/21 13:58:57;;;;;;;;;;;;;;;6.52;82.38;100743.91;5061462;28;20011;-80
2021/09/21 14:01:22;;;;;;;;;;;;;;;6.68;84.94;100751.66;5064924;28;19923;-90
2021/09/21 14:03:47;;;;;;;;;;;;;;;6.58;82.71;100750.91;5045247;28;19920;-81
2021/09/21 14:06:15;;;;;;;;;;;;;;;6.53;82.17;100750.09;5062179;28;20123;-84
2021/09/21 14:08:40;;;;;;;;;;;;;;;6.64;82.07;100749.97;5066867;28;19924;-87
2021/09/21 14:11:05;;;;;;;;;;;;;;;6.49;82.66;100741.34;5055555;28;19920;-86
2021/09/21 14:13:30;;;;;;;;;;;;;;;6.46;82.41;100736.13;5040862;28;20372;-80
2021/09/21 14:15:56;;;;;;;;;;;;;;;6.49;82.35;100732.56;5049279;28;19924;-88
2021/09/21 14:18:21;;;;;;;;;;;;;;;6.36;82.25;100734.44;5062757;28;19917;-87
2021/09/21 14:20:46;;;;;;;;;;;;;;;6.59;84.53;100738.59;5060784;28;20433;-82
2021/09/21 14:23:12;;;;;;;;;;;;;;;6.46;82.61;100741.38;5043648;28;19917;-85
2021/09/21 14:25:37;;;;;;;;;;;;;;;6.47;82.36;100740.47;5043547;28;19916;-89
2021/09/21 14:28:02;;;;;;;;;;;;;;;6.75;84.46;100736.66;5044657;28;20380;-90
2021/09/21 14:30:28;;;;;;;;;;;;;;;6.47;82.44;100742.25;5063866;28;19924;-81
2021/09/21 14:32:53;;;;;;;;;;;;;;;6.44;82.53;100744.91;5040659;28;19924;-81
2021/09/21 14:35:21;;;;;;;;;;;;;;;6.61;83.06;100732.44;5046297;28;19970;-89
2021/09/21 14:37:46;;;;;;;;;;;;;;;6.46;82.65;100738.75;5061032;28;20781;-83
2021/09/21 14:40:13;;;;;;;;;;;;;;;6.66;83.97;100735.88;5064002;28;19946;-90
2021/09/21 14:42:38;;;;;;;;;;;;;;;6.68;82.80;100735.84;5043174;28;20398;-89
2021/09/21 14:45:05;;;;;;;;;;;;;;;6.40;82.89;100737.91;5044251;28;19925;-85
2021/09/21 14:47:30;;;;;;;;;;;;;;;6.48;83.60;100730.84;5043346;28;19920;-84
2021/09/21 14:49:56;;;;;;;;;;;;;;;6.53;82.51;100731.66;5065569;28;19917;-84
2021/09/21 14:52:21;;;;;;;;;;;;;;;6.62;82.72;100734.19;5062450;28;19921;-82
2021/09/21 14:54:46;;;;;;;;;;;;;;;6.35;82.76;100735.31;5045861;28;20287;-81
2021/09/21 14:57:12;;;;;;;;;;;;;;;6.71;84.80;100717.38;5043305;28;20007;-88
2021/09/21 14:59:38;;;;;;;;;;;;;;;6.76;84.51;100720.81;5057687;28;19931;-84
2021/09/21 15:02:03;;;;;;;;;;;;;;;6.66;81.97;100724.47;5045160;28;19921;-91
2021/09/21 15:04:28;;;;;;;;;;;;;;;6.67;84.36;100726.19;5042651;28;20415;-85
2021/09/21 15:06:54;;;;;;;;;;;;;;;6.50;83.10;100740.44;5043509;28;19930;-88
2021/09/21 15:09:20;;;;;;;;;;;;;;;6.45;83.13;100733.50;5059581;28;19923;-85
2021/09/21 15:11:45;;;;;;;;;;;;;;;6.60;82.90;100735.06;5062426;28;19917;-83
2021/09/21 15:14:10;;;;;;;;;;;;;;;6.55;82.96;100727.22;5042374;28;20363;-83
2021/09/21 15:16:37;;;;;;;;;;;;;;;6.43;82.46;100725.63;5059799;28;20098;-81
2021/09/21 15:19:06;;;;;;;;;;;;;;;6.75;84.87;100723.47;5044199;28;19947;-89
2021/09/21 15:21:32;;;;;;;;;;;;;;;6.40;82.63;100720.38;5042496;28;19926;-89
2021/09/21 15:23:57;;;;;;;;;;;;;;;6.40;83.14;100724.75;5061015;28;19946;-83
2021/09/21 15:26:22;;;;;;;;;;;;;;;6.44;83.03;100729.13;5043792;28;20004;-89
2021/09/21 15:28:48;;;;;;;;;;;;;;;6.55;82.62;100732.50;5043414;28;19921;-82
2021/09/21 15:31:14;;;;;;;;;;;;;;;6.47;82.96;100729.94;5043037;28;20004;-84
2021/09/21 15:33:39;;;;;;;;;;;;;;;6.27;82.17;100738.06;5045866;28;20309;-80
2021/09/21 15:36:05;;;;;;;;;;;;;;;6.33;83.29;100743.28;5045825;28;19921;-83
2021/09/21 15:38:30;;;;;;;;;;;;;;;6.48;83.73;100744.00;5064405;28;20264;-90
2021/09/21 15:40:56;;;;;;;;;;;;;;;6.36;82.39;100740.56;5044453;28;19999;-85
2021/09/21 15:43:22;;;;;;;;;;;;;;;6.58;82.90;100748.25;5040925;28;19920;-80
2021/09/21 15:45:48;;;;;;;;;;;;;;;6.36;82.06;100740.56;5059328;28;20029;-84
2021/09/21 15:48:14;;;;;;;;;;;;;;;6.25;82.80;100738.97;5045740;28;20398;-85
2021/09/21 15:50:40;;;;;;;;;;;;;;;6.20;82.84;100736.38;5043023;28;19919;-81
2021/09/21 15:53:05;;;;;;;;;;;;;;;6.28;83.58;100741.56;5060901;28;19999;-82
2021/09/21 15:55:30;;;;;;;;;;;;;;;6.27;82.96;100748.59;5041773;28;19916;-81
2021/09/21 15:57:56;;;;;;;;;;;;;;;6.22;82.90;100750.38;5044767;28;19916;-85
2021/09/21 16:00:23;;;;;;;;;;;;;;;6.29;82.32;100756.47;5044795;28;20379;-83
2021/09/21 16:02:49;;;;;;;;;;;;;;;6.26;82.10;100764.41;5063559;28;20367;-84
2021/09/21 16:05:14;;;;;;;;;;;;;;;6.22;82.83;100770.56;5065968;28;19916;-81
2021/09/21 16:07:39;;;;;;;;;;;;;;;6.21;82.18;100772.34;5048150;28;20319;-90
2021/09/21 16:10:07;;;;;;;;;;;;;;;6.20;82.53;100773.22;5065677;28;20352;-82
2021/09/21 16:12:33;;;;;;;;;;;;;;;6.28;81.41;100776.63;5061999;28;19944;-84
2021/09/21 16:14:58;;;;;;;;;;;;;;;6.14;82.11;100774.16;5048464;28;20367;-88
2021/09/21 16:17:23;;;;;;;;;;;;;;;6.17;82.73;100783.75;5047759;28;19990;-82
2021/09/21 16:19:49;;;;;;;;;;;;;;;6.14;82.46;100789.06;5047168;28;19928;-87
2021/09/21 16:22:14;;;;;;;;;;;;;;;6.23;81.75;100794.25;5065568;28;19940;-84
2021/09/21 16:24:39;;;;;;;;;;;;;;;6.18;82.49;100799.53;5064725;28;19917;-80
2021/09/21 16:27:05;;;;;;;;;;;;;;;6.21;82.09;100800.41;5047819;28;20291;-82
2021/09/21 16:29:31;;;;;;;;;;;;;;;6.10;82.32;100797.88;5046043;28;20367;-81
2021/09/21 16:31:57;;;;;;;;;;;;;;;5.99;83.09;100801.44;5046691;28;20382;-81
2021/09/21 16:34:22;;;;;;;;;;;;;;;6.09;83.56;100801.38;5047424;28;19978;-81
2021/09/21 16:36:47;;;;;;;;;;;;;;;6.14;82.03;100805.72;5047139;28;19920;-82
2021/09/21 16:39:13;;;;;;;;;;;;;;;6.03;82.53;100806.69;5064955;28;19916;-91
2021/09/21 16:41:38;;;;;;;;;;;;;;;6.07;82.06;100809.28;5047118;28;20378;-81
2021/09/21 16:44:04;;;;;;;;;;;;;;;5.92;82.91;100810.25;5063535;28;19918;-81
2021/09/21 16:46:32;;;;;;;;;;;;;;;5.93;82.77;100805.84;5065331;28;19924;-82
2021/09/21 16:48:58;;;;;;;;;;;;;;;5.98;82.54;100810.25;5046589;28;19920;-83
2021/09/21 16:51:24;;;;;;;;;;;;;;;5.98;82.36;100805.00;5047250;28;19917;-89
2021/09/21 16:53:50;;;;;;;;;;;;;;;6.03;81.86;100804.94;5046976;28;19928;-82
2021/09/21 16:56:15;;;;;;;;;;;;;;;6.00;81.97;100807.59;5046639;28;19916;-82